createdAt,value
2018-12-16T00:00:35.827Z,35.60
2018-12-16T00:03:11.559Z,37.10
2018-12-16T00:05:47.833Z,34.00
2018-12-16T00:08:23.881Z,35.20
2018-12-16T00:11:00.075Z,36.43
2018-12-16T00:13:36.277Z,31.73
2018-12-16T00:16:17.098Z,33.17
2018-12-16T00:18:49.435Z,33.67
2018-12-16T00:21:21.896Z,33.33
2018-12-16T00:23:57.942Z,35.47
2018-12-16T00:27:38.204Z,32.30
2018-12-16T00:30:14.081Z,30.03
2018-12-16T00:32:50.009Z,29.33
2018-12-16T00:35:22.360Z,34.47
2018-12-16T00:37:58.537Z,31.47
2018-12-16T00:40:34.804Z,32.80
2018-12-16T00:43:10.720Z,30.07
2018-12-16T00:45:46.916Z,34.03
2018-12-16T00:48:23.153Z,34.37
2018-12-16T00:50:59.281Z,30.83
2018-12-16T00:53:35.320Z,32.53
2018-12-16T00:56:11.340Z,34.30
2018-12-16T00:58:47.450Z,34.00
2018-12-16T01:01:23.356Z,34.87
2018-12-16T01:03:59.408Z,35.20
2018-12-16T01:06:35.729Z,33.80
2018-12-16T01:09:11.760Z,29.77
2018-12-16T01:11:47.837Z,40.53
2018-12-16T01:14:23.833Z,35.03
2018-12-16T01:17:00.057Z,39.30
2018-12-16T01:19:35.945Z,36.63
2018-12-16T01:22:11.966Z,36.63
2018-12-16T01:24:48.115Z,38.67
2018-12-16T01:27:24.149Z,39.73
2018-12-16T01:30:00.232Z,40.03
2018-12-16T01:32:32.493Z,40.43
2018-12-16T01:35:08.797Z,40.07
2018-12-16T01:37:44.922Z,46.17
2018-12-16T01:40:21.149Z,40.50
2018-12-16T01:42:53.402Z,41.53
2018-12-16T01:45:29.549Z,44.27
2018-12-16T01:48:05.517Z,39.87
2018-12-16T01:50:41.749Z,44.87
2018-12-16T01:53:17.939Z,40.53
2018-12-16T01:55:54.209Z,42.97
2018-12-16T01:58:30.224Z,46.27
2018-12-16T02:01:06.428Z,39.73
2018-12-16T02:03:42.652Z,41.60
2018-12-16T02:06:18.950Z,44.17
2018-12-16T02:08:55.001Z,44.90
2018-12-16T02:11:30.977Z,42.07
2018-12-16T02:14:07.233Z,42.27
2018-12-16T02:16:39.561Z,41.97
2018-12-16T02:19:15.765Z,42.47
2018-12-16T02:21:51.907Z,41.60
2018-12-16T02:24:27.973Z,42.93
2018-12-16T02:27:04.292Z,39.73
2018-12-16T02:29:40.577Z,44.90
2018-12-16T02:32:16.466Z,41.60
2018-12-16T02:34:52.605Z,41.23
2018-12-16T02:37:28.642Z,42.30
2018-12-16T02:40:04.813Z,45.00
2018-12-16T02:42:40.890Z,44.10
2018-12-16T02:45:17.040Z,46.73
2018-12-16T02:47:53.309Z,40.53
2018-12-16T02:50:29.458Z,46.57
2018-12-16T02:53:05.752Z,44.23
2018-12-16T02:55:38.184Z,43.60
2018-12-16T02:58:10.489Z,41.90
2018-12-16T03:00:46.952Z,45.80
2018-12-16T03:03:22.821Z,47.60
2018-12-16T03:05:58.829Z,44.43
2018-12-16T03:08:34.938Z,43.10
2018-12-16T03:11:07.170Z,46.73
2018-12-16T03:13:43.402Z,43.87
2018-12-16T03:16:19.520Z,43.40
2018-12-16T03:18:55.816Z,43.87
2018-12-16T03:21:31.814Z,43.50
2018-12-16T03:24:07.982Z,46.33
2018-12-16T03:26:44.160Z,42.20
2018-12-16T03:29:20.302Z,35.80
2018-12-16T03:31:56.214Z,43.57
2018-12-16T03:34:32.355Z,44.53
2018-12-16T03:37:08.610Z,45.93
2018-12-16T03:39:44.838Z,39.30
2018-12-16T03:42:20.880Z,39.73
2018-12-16T03:50:04.151Z,38.03
2018-12-16T03:52:40.009Z,41.63
2018-12-16T03:55:15.811Z,41.57
2018-12-16T03:57:52.001Z,40.53
2018-12-16T04:00:28.087Z,38.23
2018-12-16T04:03:04.152Z,38.90
2018-12-16T04:05:40.042Z,39.87
2018-12-16T04:08:16.136Z,40.13
2018-12-16T04:10:52.121Z,42.23
2018-12-16T04:13:28.223Z,39.97
2018-12-16T04:16:04.248Z,38.60
2018-12-16T04:18:40.305Z,38.87
2018-12-16T04:21:12.573Z,38.00
2018-12-16T04:23:48.664Z,37.37
2018-12-16T04:26:24.877Z,39.30
2018-12-16T04:29:01.078Z,38.50
2018-12-16T04:31:37.108Z,38.73
2018-12-16T04:34:13.284Z,40.70
2018-12-16T04:36:49.492Z,36.37
2018-12-16T04:39:25.658Z,40.00
2018-12-16T04:42:01.496Z,40.23
2018-12-16T04:44:37.784Z,38.87
2018-12-16T04:47:13.954Z,41.80
2018-12-16T04:49:50.195Z,38.23
2018-12-16T05:15:28.201Z,40.20
2018-12-16T05:18:04.233Z,37.60
2018-12-16T05:20:40.215Z,37.10
2018-12-16T05:23:16.357Z,34.43
2018-12-16T05:25:52.386Z,39.83
2018-12-16T05:28:28.412Z,39.27
2018-12-16T05:31:00.748Z,38.17
2018-12-16T05:33:37.329Z,39.70
2018-12-16T05:36:12.956Z,35.27
2018-12-16T05:38:45.295Z,39.40
2018-12-16T05:41:21.220Z,40.67
2018-12-16T05:43:57.241Z,37.33
2018-12-16T05:46:29.500Z,37.70
2018-12-16T05:49:05.541Z,39.97
2018-12-16T05:51:41.637Z,36.77
2018-12-16T05:54:17.784Z,41.17
2018-12-16T05:56:53.800Z,37.00
2018-12-16T05:59:30.067Z,34.03
2018-12-16T06:02:02.442Z,34.07
2018-12-16T06:04:38.480Z,38.37
2018-12-16T06:07:14.372Z,36.57
2018-12-16T06:09:50.666Z,34.90
2018-12-16T06:12:26.881Z,32.23
2018-12-16T06:15:03.159Z,36.73
2018-12-16T06:17:39.112Z,36.37
2018-12-16T06:20:15.281Z,36.30
2018-12-16T06:22:51.417Z,33.97
2018-12-16T06:25:27.620Z,37.10
2018-12-16T06:28:03.868Z,38.37
2018-12-16T06:30:40.207Z,36.93
2018-12-16T06:33:16.304Z,38.93
2018-12-16T06:35:52.480Z,36.47
2018-12-16T06:38:28.571Z,36.60
2018-12-16T06:41:04.774Z,35.70
2018-12-16T06:43:40.904Z,39.97
2018-12-16T06:46:17.061Z,34.73
2018-12-16T06:48:53.096Z,34.50
2018-12-16T06:51:29.280Z,35.67
2018-12-16T06:54:02.649Z,35.63
2018-12-16T06:56:38.848Z,39.27
2018-12-16T06:59:14.980Z,35.90
2018-12-16T07:01:47.353Z,35.33
2018-12-16T07:04:23.709Z,34.93
2018-12-16T07:06:59.592Z,35.00
2018-12-16T07:09:35.607Z,36.50
2018-12-16T07:12:11.755Z,34.57
2018-12-16T07:14:47.704Z,33.43
2018-12-16T07:17:24.212Z,34.83
2018-12-16T07:20:00.304Z,36.53
2018-12-16T07:22:36.385Z,37.20
2018-12-16T07:25:12.561Z,37.87
2018-12-16T07:27:48.741Z,36.07
2018-12-16T07:30:24.820Z,35.90
2018-12-16T07:33:01.025Z,33.10
2018-12-16T07:35:37.066Z,35.13
2018-12-16T07:38:13.471Z,34.67
2018-12-16T07:40:49.493Z,36.47
2018-12-16T07:43:25.651Z,36.30
2018-12-16T07:46:01.680Z,39.37
2018-12-16T07:48:34.363Z,37.17
2018-12-16T07:51:10.076Z,38.70
2018-12-16T07:53:42.523Z,38.73
2018-12-16T07:56:18.719Z,39.17
2018-12-16T07:58:54.982Z,42.43
2018-12-16T08:01:31.149Z,38.57
2018-12-16T08:04:07.349Z,40.50
2018-12-16T08:06:43.593Z,43.57
2018-12-16T08:09:19.707Z,42.27
2018-12-16T08:11:55.887Z,42.50
2018-12-16T08:14:32.097Z,43.90
2018-12-16T08:17:08.171Z,36.57
2018-12-16T08:19:44.177Z,55.50
2018-12-16T08:27:22.404Z,37.30
2018-12-16T08:29:58.000Z,41.00
2018-12-16T08:32:34.117Z,38.47
2018-12-16T08:35:10.014Z,37.93
2018-12-16T08:37:49.345Z,36.73
2018-12-16T08:40:21.700Z,36.73
2018-12-16T08:42:57.779Z,40.10
2018-12-16T08:45:33.789Z,38.93
2018-12-16T08:48:09.833Z,36.63
2018-12-16T08:50:46.109Z,48.93
2018-12-16T08:53:22.035Z,35.03
2018-12-16T08:55:58.064Z,50.97
2018-12-16T08:58:34.129Z,38.73
2018-12-16T09:01:10.390Z,41.50
2018-12-16T09:03:47.076Z,45.57
2018-12-16T09:06:22.723Z,49.97
2018-12-16T09:08:59.244Z,44.73
2018-12-16T09:11:35.065Z,53.43
2018-12-16T09:14:11.216Z,41.83
2018-12-16T09:16:47.328Z,48.80
2018-12-16T09:19:23.176Z,42.93
2018-12-16T09:21:59.120Z,42.67
2018-12-16T09:24:37.469Z,47.80
2018-12-16T09:27:13.281Z,45.87
2018-12-16T09:29:49.430Z,48.00
2018-12-16T09:32:25.590Z,50.63
2018-12-16T09:34:57.852Z,51.07
2018-12-16T09:37:33.992Z,52.60
2018-12-16T09:40:10.092Z,46.30
2018-12-16T09:42:46.381Z,50.20
2018-12-16T09:45:22.624Z,47.93
2018-12-16T09:47:58.868Z,45.37
2018-12-16T09:50:31.306Z,46.07
2018-12-16T09:53:07.582Z,43.43
2018-12-16T09:55:43.850Z,41.77
2018-12-16T09:58:20.197Z,43.40
2018-12-16T10:00:56.132Z,45.80
2018-12-16T10:03:31.981Z,41.10
2018-12-16T10:06:08.424Z,41.33
2018-12-16T10:08:44.316Z,44.00
2018-12-16T10:11:20.320Z,43.13
2018-12-16T10:13:56.369Z,44.00
2018-12-16T10:16:32.759Z,38.23
2018-12-16T10:19:08.920Z,38.97
2018-12-16T10:21:45.117Z,39.93
2018-12-16T10:24:21.553Z,42.77
2018-12-16T10:26:57.340Z,44.10
2018-12-16T10:29:33.489Z,45.83
2018-12-16T10:32:05.900Z,42.90
2018-12-16T10:34:38.458Z,43.70
2018-12-16T10:44:51.050Z,44.70
2018-12-16T10:47:27.048Z,43.33
2018-12-16T11:18:10.600Z,57.40
2018-12-16T11:20:46.767Z,54.40
2018-12-16T11:23:22.846Z,51.17
2018-12-16T11:36:13.370Z,44.27
2018-12-16T11:38:49.401Z,45.33
2018-12-16T12:17:13.952Z,46.93
2018-12-16T12:19:49.974Z,49.60
2018-12-16T12:22:26.225Z,53.37
2018-12-16T12:25:02.264Z,51.60
2018-12-16T12:27:38.513Z,52.23
2018-12-16T12:30:14.694Z,47.10
2018-12-16T12:32:50.796Z,49.87
2018-12-16T12:35:26.979Z,46.40
2018-12-16T12:38:03.208Z,46.77
2018-12-16T12:40:39.433Z,45.60
2018-12-16T12:43:15.642Z,50.30
2018-12-16T12:45:51.610Z,50.97
2018-12-16T12:48:27.861Z,50.37
2018-12-16T12:51:04.082Z,48.60
2018-12-16T12:53:40.239Z,48.13
2018-12-16T12:56:16.536Z,46.53
2018-12-16T12:58:52.442Z,51.13
2018-12-16T13:01:28.658Z,46.63
2018-12-16T13:04:04.889Z,36.57
2018-12-16T13:06:37.480Z,44.50
2018-12-16T13:09:13.328Z,72.97
2018-12-16T13:11:45.603Z,50.73
2018-12-16T13:14:22.260Z,57.53
2018-12-16T13:17:01.398Z,54.57
2018-12-16T13:24:57.856Z,48.33
2018-12-16T13:27:35.185Z,41.07
2018-12-16T13:30:14.164Z,39.33
2018-12-16T13:32:50.193Z,35.97
2018-12-16T13:35:26.467Z,33.30
2018-12-16T13:38:03.221Z,33.97
2018-12-16T13:40:40.005Z,29.20
2018-12-16T13:43:12.448Z,29.40
2018-12-16T13:45:49.338Z,28.20
2018-12-16T13:48:26.476Z,19.80
2018-12-16T13:51:00.345Z,20.80
2018-12-16T13:53:40.026Z,21.20
2018-12-16T13:56:16.386Z,19.93
2018-12-16T13:58:52.377Z,20.67
2018-12-16T14:01:29.224Z,15.47
2018-12-16T14:04:02.457Z,19.03
2018-12-16T14:06:35.207Z,19.63
2018-12-16T14:09:11.270Z,18.20
2018-12-16T14:11:47.568Z,19.40
2018-12-16T14:14:24.273Z,21.37
2018-12-16T14:17:01.610Z,18.70
2018-12-16T14:19:38.067Z,18.30
2018-12-16T14:22:14.407Z,18.47
2018-12-16T14:24:51.849Z,17.73
2018-12-16T14:37:41.307Z,12.60
2018-12-16T14:40:21.393Z,15.37
2018-12-16T14:42:58.425Z,17.70
2018-12-16T14:45:35.749Z,14.93
2018-12-16T14:48:11.769Z,16.53
2018-12-16T14:50:49.000Z,16.23
2018-12-16T14:53:26.175Z,20.37
2018-12-16T14:56:03.596Z,17.70
2018-12-16T14:58:40.353Z,19.47
2018-12-16T15:01:16.504Z,23.13
2018-12-16T15:03:52.466Z,18.27
2018-12-16T15:06:30.160Z,18.10
2018-12-16T15:09:09.010Z,15.37
2018-12-16T15:11:45.497Z,18.60
2018-12-16T15:14:21.185Z,17.73
2018-12-16T15:16:53.785Z,18.57
2018-12-16T15:19:30.418Z,19.93
2018-12-16T15:22:03.929Z,19.30
2018-12-16T15:24:40.880Z,16.60
2018-12-16T15:27:13.416Z,18.30
2018-12-16T15:29:49.797Z,18.13
2018-12-16T15:32:27.038Z,18.97
2018-12-16T15:35:04.194Z,19.50
2018-12-16T15:37:41.300Z,17.67
2018-12-16T15:40:18.509Z,20.57
2018-12-16T15:42:55.832Z,21.43
2018-12-16T15:48:01.757Z,21.03
2018-12-16T15:50:38.174Z,20.90
2018-12-16T15:53:14.228Z,21.43
2018-12-16T15:55:50.196Z,21.93
2018-12-16T15:58:26.450Z,21.73
2018-12-16T16:23:57.240Z,26.03
2018-12-16T16:26:33.540Z,20.23
2018-12-16T16:29:09.618Z,24.97
2018-12-16T16:31:46.010Z,30.67
2018-12-16T16:34:21.923Z,21.53
2018-12-16T16:36:57.995Z,20.17
2018-12-16T16:39:34.243Z,23.20
2018-12-16T16:42:10.625Z,21.40
2018-12-16T16:44:46.749Z,21.10
2018-12-16T16:47:22.776Z,18.90
2018-12-16T16:49:58.845Z,23.57
2018-12-16T16:52:35.179Z,19.97
2018-12-16T16:55:11.243Z,24.03
2018-12-16T16:57:47.922Z,34.67
2018-12-16T17:00:24.253Z,42.07
2018-12-16T17:03:00.340Z,41.10
2018-12-16T17:05:36.348Z,39.67
2018-12-16T17:08:08.733Z,46.57
2018-12-16T17:10:44.988Z,43.73
2018-12-16T17:13:21.251Z,29.60
2018-12-16T17:15:57.337Z,31.20
2018-12-16T17:18:34.388Z,30.37
2018-12-16T17:21:10.680Z,29.20
2018-12-16T17:23:46.982Z,29.33
2018-12-16T17:26:29.796Z,32.87
2018-12-16T17:29:01.550Z,40.60
2018-12-16T17:31:38.474Z,42.80
2018-12-16T17:34:11.273Z,47.13
2018-12-16T17:36:47.212Z,51.87
2018-12-16T17:39:23.381Z,50.87
2018-12-16T17:41:59.465Z,63.47
2018-12-16T17:44:35.802Z,58.27
2018-12-16T17:47:11.848Z,48.93
2018-12-16T17:49:47.862Z,45.27
2018-12-16T17:52:24.042Z,42.17
2018-12-16T17:55:00.196Z,41.97
2018-12-16T17:57:36.184Z,40.90
2018-12-16T18:00:12.713Z,42.60
2018-12-16T18:02:48.489Z,49.83
2018-12-16T18:05:24.856Z,46.57
2018-12-16T18:08:00.973Z,44.67
2018-12-16T18:10:37.112Z,51.80
2018-12-16T18:13:13.389Z,46.70
2018-12-16T18:15:49.560Z,44.63
2018-12-16T18:18:25.796Z,43.67
2018-12-16T18:21:01.982Z,38.53
2018-12-16T18:23:38.136Z,39.13
2018-12-16T18:26:10.554Z,34.23
2018-12-16T18:28:46.685Z,32.97
2018-12-16T18:31:23.911Z,32.83
2018-12-16T18:34:00.050Z,33.70
2018-12-16T18:36:36.260Z,35.53
2018-12-16T18:39:12.720Z,32.33
2018-12-16T18:41:48.817Z,33.57
2018-12-16T18:44:24.706Z,34.60
2018-12-16T18:47:00.798Z,35.90
2018-12-16T18:49:37.065Z,40.50
2018-12-16T18:52:13.381Z,40.87
2018-12-16T18:54:49.353Z,41.97
2018-12-16T18:57:25.611Z,43.10
2018-12-16T19:00:01.658Z,45.83
2018-12-16T19:02:37.647Z,47.10
2018-12-16T19:05:13.734Z,44.63
2018-12-16T19:07:49.999Z,46.97
2018-12-16T19:10:25.952Z,75.93
2018-12-16T19:13:02.637Z,63.20
2018-12-16T19:15:42.537Z,53.63
2018-12-16T19:18:19.430Z,57.33
2018-12-16T19:20:59.429Z,64.50
2018-12-16T19:23:35.849Z,66.50
2018-12-16T19:26:25.179Z,56.13
2018-12-16T19:28:57.951Z,60.97
2018-12-16T19:31:35.863Z,66.90
2018-12-16T19:34:12.955Z,67.23
2018-12-16T19:36:52.253Z,69.07
2018-12-16T19:39:24.849Z,63.77
2018-12-16T19:42:04.505Z,69.20
2018-12-16T19:44:41.892Z,69.67
2018-12-16T19:47:21.585Z,91.07
2018-12-16T19:49:58.390Z,84.47
2018-12-16T19:52:31.042Z,78.47
2018-12-16T19:55:08.193Z,75.53
2018-12-16T19:57:45.042Z,62.93
2018-12-16T20:00:22.375Z,72.27
2018-12-16T20:02:58.473Z,82.83
2018-12-16T20:05:40.088Z,86.07
2018-12-16T20:08:16.635Z,66.30
2018-12-16T20:10:56.779Z,62.50
2018-12-16T20:13:29.761Z,62.37
2018-12-16T20:16:06.509Z,56.43
2018-12-16T20:18:42.709Z,49.97
2018-12-16T20:21:19.401Z,49.27
2018-12-16T20:23:56.513Z,55.10
2018-12-16T20:26:32.667Z,59.43
2018-12-16T20:29:08.825Z,56.33
2018-12-16T20:31:44.936Z,58.10
2018-12-16T20:34:21.196Z,63.87
2018-12-16T20:36:57.509Z,68.00
2018-12-16T20:39:33.892Z,61.20
2018-12-16T20:42:14.424Z,65.27
2018-12-16T20:44:50.618Z,57.87
2018-12-16T20:47:27.105Z,62.90
2018-12-16T20:50:05.238Z,62.77
2018-12-16T20:52:44.875Z,68.23
2018-12-16T20:55:21.315Z,88.73
2018-12-16T20:58:01.634Z,75.07
2018-12-16T21:00:37.950Z,89.60
2018-12-16T21:03:27.478Z,81.33
2018-12-16T21:06:03.962Z,132.40
2018-12-16T21:08:43.054Z,79.50
2018-12-16T21:12:23.117Z,77.57
2018-12-16T21:17:11.744Z,177.90
2018-12-16T21:19:50.881Z,103.57
2018-12-16T21:22:30.252Z,70.77
2018-12-16T21:25:06.464Z,84.77
2018-12-16T21:27:48.444Z,61.43
2018-12-16T21:30:24.932Z,72.97
2018-12-16T21:33:04.840Z,70.33
2018-12-16T21:35:38.185Z,80.03
2018-12-16T21:51:18.255Z,89.10
2018-12-16T22:01:42.407Z,114.83
2018-12-16T22:04:14.649Z,138.03
2018-12-16T22:06:53.653Z,91.57
2018-12-16T22:09:29.918Z,81.80
2018-12-16T22:12:10.258Z,56.70
2018-12-16T22:14:44.113Z,56.30
2018-12-16T22:17:23.297Z,58.57
2018-12-16T22:19:59.189Z,51.23
2018-12-16T22:22:38.434Z,53.13
2018-12-16T22:25:16.058Z,49.73
2018-12-16T22:27:52.932Z,41.70
2018-12-16T22:30:25.872Z,47.43
2018-12-16T22:33:02.864Z,52.63
2018-12-16T22:35:38.965Z,55.80
2018-12-16T22:38:15.175Z,45.33
2018-12-16T22:40:51.985Z,41.97
2018-12-16T22:43:28.242Z,41.83
2018-12-16T22:46:04.690Z,41.27
2018-12-16T22:48:43.740Z,39.30
2018-12-16T22:51:20.214Z,41.10
2018-12-16T22:53:59.995Z,41.90
2018-12-16T22:56:33.210Z,46.53
2018-12-16T22:59:14.450Z,56.83
2018-12-16T23:01:48.424Z,43.43
2018-12-16T23:04:27.893Z,40.97
2018-12-16T23:07:00.381Z,37.50
2018-12-16T23:09:37.036Z,36.57
2018-12-16T23:12:13.077Z,37.17
2018-12-16T23:14:48.896Z,37.50
2018-12-16T23:17:25.145Z,39.43
2018-12-16T23:20:02.757Z,40.00
2018-12-16T23:22:38.410Z,37.83
2018-12-16T23:25:14.924Z,39.73
2018-12-16T23:27:54.269Z,41.33
2018-12-16T23:30:26.144Z,45.73
2018-12-16T23:33:02.466Z,51.03
2018-12-16T23:35:41.653Z,45.73
2018-12-16T23:38:17.991Z,41.07
2018-12-16T23:41:07.550Z,37.83
2018-12-16T23:43:40.125Z,38.83
2018-12-16T23:46:16.286Z,37.87
2018-12-16T23:48:53.521Z,40.43
2018-12-16T23:51:32.626Z,39.47
2018-12-16T23:54:09.133Z,39.27
2018-12-16T23:56:46.288Z,38.33
2018-12-16T23:59:23.955Z,34.60
